Time;durP1;ratioP1;P1;durP2;ratioP2;P2;SDS_P1;SDS_P2;PMS_P1;PMS_P2;Temp;Humidity;BMP_temperature;BMP_pressure;BME280_temperature;BME280_humidity;BME280_pressure;Samples;Min_cycle;Max_cycle;Signal;HPM_P1;HPM_P2
2022/07/27 00:00:19;;;;;;;11.82;7.07;;;;;;;23.00;100.00;-24455.63;5084353;28;20216;-64
2022/07/27 00:02:45;;;;;;;11.57;6.65;;;;;;;22.85;100.00;-24451.50;5076834;28;20272;-63
2022/07/27 00:05:10;;;;;;;12.43;7.25;;;;;;;22.86;100.00;-24451.91;5079689;28;20244;-64
2022/07/27 00:07:36;;;;;;;14.35;7.78;;;;;;;23.20;100.00;-24461.16;5079249;28;20696;-65
2022/07/27 00:10:03;;;;;;;12.60;7.35;;;;;;;23.04;100.00;-24456.59;5075294;28;20182;-65
2022/07/27 00:12:29;;;;;;;12.98;8.02;;;;;;;22.57;100.00;-24443.88;5076851;28;20180;-65
2022/07/27 00:14:57;;;;;;;12.80;7.28;;;;;;;22.33;100.00;-24437.25;5079012;28;20540;-63
2022/07/27 00:17:26;;;;;;;13.95;7.82;;;;;;;22.63;100.00;-24445.41;5078935;28;20661;-66
2022/07/27 00:19:52;;;;;;;12.43;6.85;;;;;;;22.35;100.00;-24437.94;5079772;28;20178;-65
2022/07/27 00:22:17;;;;;;;12.15;7.00;;;;;;;22.62;100.00;-24445.25;5078899;28;20181;-65
2022/07/27 00:24:43;;;;;;;13.82;7.40;;;;;;;22.42;100.00;-24439.75;5074747;28;20178;-65
2022/07/27 00:27:09;;;;;;;11.77;7.78;;;;;;;22.60;100.00;-24444.56;5079520;28;20486;-63
2022/07/27 00:29:34;;;;;;;13.05;7.20;;;;;;;22.32;100.00;-24436.97;5078103;28;20254;-63
2022/07/27 00:32:00;;;;;;;13.52;7.60;;;;;;;22.59;100.00;-24444.44;5081480;28;20326;-65
2022/07/27 00:34:25;;;;;;;13.35;7.70;;;;;;;22.49;100.00;-24441.66;5081130;28;20177;-62
2022/07/27 00:36:51;;;;;;;14.10;7.63;;;;;;;22.41;100.00;-24439.47;5078316;28;20721;-61
2022/07/27 00:39:16;;;;;;;12.48;7.72;;;;;;;21.99;100.00;-24428.13;5076832;28;20620;-66
2022/07/27 00:41:42;;;;;;;12.82;7.40;;;;;;;22.25;100.00;-24435.03;5073767;28;20170;-66
2022/07/27 00:44:09;;;;;;;15.43;8.15;;;;;;;21.84;100.00;-24423.94;5081597;28;20273;-67
2022/07/27 00:46:35;;;;;;;13.32;7.75;;;;;;;22.17;100.00;-24432.81;5077440;28;20235;-63
2022/07/27 00:49:00;;;;;;;17.15;7.82;;;;;;;21.79;100.00;-24422.56;5080565;28;20205;-65
2022/07/27 00:51:26;;;;;;;14.05;7.72;;;;;;;21.82;100.00;-24423.25;5079117;28;20220;-64
2022/07/27 00:53:52;;;;;;;13.40;7.35;;;;;;;22.09;100.00;-24430.59;5080362;28;20697;-64
2022/07/27 00:56:19;;;;;;;12.50;7.40;;;;;;;22.23;100.00;-24434.47;5078772;28;20210;-62
2022/07/27 00:58:48;;;;;;;14.25;7.57;;;;;;;21.86;100.00;-24424.50;5081057;28;20185;-64
2022/07/27 01:01:14;;;;;;;13.10;7.03;;;;;;;21.90;100.00;-24425.63;5078826;28;20617;-63
2022/07/27 01:03:40;;;;;;;10.60;6.72;;;;;;;22.16;100.00;-24432.53;5076259;28;20182;-65
2022/07/27 01:06:06;;;;;;;13.07;6.97;;;;;;;21.89;100.00;-24425.34;5073630;28;20181;-62
2022/07/27 01:08:32;;;;;;;14.32;7.75;;;;;;;21.98;100.00;-24427.84;5073717;28;20170;-63
2022/07/27 01:10:58;;;;;;;11.13;6.53;;;;;;;21.62;100.00;-24417.84;5078287;28;20177;-67
2022/07/27 01:13:25;;;;;;;11.77;7.63;;;;;;;21.74;100.00;-24421.19;5075406;28;20184;-64
2022/07/27 01:15:51;;;;;;;12.77;7.20;;;;;;;21.70;100.00;-24419.94;5075743;28;20696;-64
2022/07/27 01:18:33;;;;;;;13.98;8.05;;;;;;;21.90;100.00;-24425.63;5075443;28;20273;-64
2022/07/27 01:21:00;;;;;;;11.63;7.00;;;;;;;21.64;100.00;-24418.41;5075993;28;20188;-64
2022/07/27 01:23:27;;;;;;;12.18;6.97;;;;;;;22.03;100.00;-24429.09;5073017;28;20651;-64
2022/07/27 01:25:53;;;;;;;14.00;8.02;;;;;;;21.70;100.00;-24419.94;5077955;28;20594;-64
2022/07/27 01:28:18;;;;;;;13.32;7.85;;;;;;;21.67;100.00;-24419.25;5077231;28;20205;-63
2022/07/27 01:30:44;;;;;;;13.60;6.93;;;;;;;21.62;100.00;-24417.84;5072690;28;20246;-64
2022/07/27 01:33:10;;;;;;;13.32;7.38;;;;;;;21.52;100.00;-24415.22;5075673;28;20643;-65
2022/07/27 01:35:37;;;;;;;12.73;7.70;;;;;;;21.60;100.00;-24417.44;5079411;28;20178;-65
2022/07/27 01:38:03;;;;;;;13.13;7.72;;;;;;;21.64;100.00;-24418.28;5074269;28;20257;-64
2022/07/27 01:40:29;;;;;;;12.52;7.70;;;;;;;21.73;100.00;-24420.91;5076865;28;20266;-62
2022/07/27 01:42:55;;;;;;;12.75;7.35;;;;;;;21.56;100.00;-24416.34;5074838;28;20211;-63
2022/07/27 01:45:21;;;;;;;12.93;8.13;;;;;;;21.21;100.00;-24406.50;5077668;28;20625;-64
2022/07/27 01:47:46;;;;;;;13.73;7.47;;;;;;;21.55;100.00;-24415.91;5075049;28;20178;-62
2022/07/27 01:50:12;;;;;;;16.48;8.02;;;;;;;21.60;100.00;-24417.31;5073968;28;20172;-66
2022/07/27 01:52:38;;;;;;;13.50;7.40;;;;;;;21.57;100.00;-24416.47;5077079;28;20231;-64
2022/07/27 01:55:09;;;;;;;13.15;7.38;;;;;;;21.29;100.00;-24408.84;5072662;28;20169;-61
2022/07/27 01:57:35;;;;;;;14.43;7.55;;;;;;;21.36;100.00;-24410.66;5075908;28;20209;-67
2022/07/27 02:00:01;;;;;;;12.73;7.47;;;;;;;21.57;100.00;-24416.63;5077711;28;20178;-63
2022/07/27 02:02:27;;;;;;;12.27;7.78;;;;;;;21.45;100.00;-24413.16;5072695;28;20174;-64
2022/07/27 02:04:52;;;;;;;14.70;7.72;;;;;;;21.41;100.00;-24412.19;5076434;28;20612;-62
2022/07/27 02:07:17;;;;;;;13.00;7.22;;;;;;;21.39;100.00;-24411.63;5073519;28;20221;-62
2022/07/27 02:09:44;;;;;;;13.50;7.05;;;;;;;21.10;100.00;-24403.72;5076696;28;20224;-65
2022/07/27 02:14:54;;;;;;;16.20;8.70;;;;;;;21.45;100.00;-24413.16;5072031;28;20569;-65
2022/07/27 02:17:19;;;;;;;12.23;7.35;;;;;;;21.34;100.00;-24410.09;5071777;28;20182;-63
2022/07/27 02:19:45;;;;;;;13.80;7.22;;;;;;;21.24;100.00;-24407.31;5072266;28;20176;-63
2022/07/27 02:22:10;;;;;;;16.20;7.45;;;;;;;21.17;100.00;-24405.53;5077173;28;20597;-63
2022/07/27 02:24:36;;;;;;;13.60;7.22;;;;;;;21.23;100.00;-24407.03;5074596;28;20173;-63
2022/07/27 02:27:02;;;;;;;12.75;8.13;;;;;;;21.21;100.00;-24406.50;5072131;28;20262;-64
2022/07/27 02:29:29;;;;;;;13.48;7.70;;;;;;;21.26;100.00;-24407.88;5076162;28;20631;-62
2022/07/27 02:31:55;;;;;;;13.13;7.18;;;;;;;21.63;100.00;-24418.13;5079108;28;20247;-64
2022/07/27 02:34:21;;;;;;;14.13;7.90;;;;;;;21.54;100.00;-24415.78;5076772;28;20599;-63
2022/07/27 02:36:47;;;;;;;13.50;7.80;;;;;;;21.60;100.00;-24417.44;5076719;28;20245;-64
2022/07/27 02:39:12;;;;;;;12.05;7.72;;;;;;;21.60;100.00;-24417.31;5078407;28;20592;-63
2022/07/27 02:41:37;;;;;;;13.27;7.13;;;;;;;21.25;100.00;-24407.59;5077003;28;20186;-64
2022/07/27 02:44:03;;;;;;;12.40;7.40;;;;;;;21.48;100.00;-24414.13;5073727;28;20261;-66
2022/07/27 02:46:29;;;;;;;12.57;7.05;;;;;;;21.07;100.00;-24402.75;5074037;28;20556;-65
2022/07/27 02:48:54;;;;;;;13.38;7.82;;;;;;;21.02;100.00;-24401.34;5076314;28;20193;-63
2022/07/27 02:51:19;;;;;;;15.55;8.43;;;;;;;21.39;100.00;-24411.63;5076159;28;20170;-64
2022/07/27 02:53:45;;;;;;;12.93;7.45;;;;;;;21.32;100.00;-24409.69;5071732;28;20617;-64
2022/07/27 02:56:10;;;;;;;11.88;6.85;;;;;;;21.39;100.00;-24411.63;5076150;28;20190;-65
2022/07/27 02:58:36;;;;;;;13.00;7.72;;;;;;;21.23;100.00;-24407.03;5071102;28;20531;-66
2022/07/27 03:01:03;;;;;;;12.50;7.55;;;;;;;20.98;100.00;-24400.38;5075842;28;20177;-63
2022/07/27 03:03:28;;;;;;;12.88;7.22;;;;;;;21.17;100.00;-24405.38;5076747;28;20181;-63
2022/07/27 03:05:53;;;;;;;15.68;7.85;;;;;;;20.87;100.00;-24397.34;5075786;28;20192;-63
2022/07/27 03:08:19;;;;;;;14.55;7.47;;;;;;;20.67;100.00;-24391.94;5075575;28;20308;-61
2022/07/27 03:10:44;;;;;;;14.35;7.45;;;;;;;21.01;100.00;-24401.22;5090428;28;20228;-63
2022/07/27 03:13:10;;;;;;;13.35;7.85;;;;;;;20.88;100.00;-24397.63;5075550;28;20189;-63
2022/07/27 03:15:35;;;;;;;15.10;8.57;;;;;;;20.44;100.00;-24385.53;5075053;28;20170;-63
2022/07/27 03:18:01;;;;;;;12.38;7.40;;;;;;;20.88;100.00;-24397.47;5076038;28;20189;-64
2022/07/27 03:20:27;;;;;;;14.18;7.80;;;;;;;20.68;100.00;-24392.19;5080745;28;20185;-66
2022/07/27 03:22:53;;;;;;;14.52;7.63;;;;;;;20.79;100.00;-24395.13;5078700;28;20177;-62
2022/07/27 03:25:19;;;;;;;14.10;7.82;;;;;;;21.31;100.00;-24409.41;5079636;28;20631;-63
2022/07/27 03:27:44;;;;;;;13.95;8.35;;;;;;;21.23;100.00;-24407.19;5078788;28;20166;-64
2022/07/27 03:30:10;;;;;;;16.30;8.35;;;;;;;21.91;100.00;-24425.75;5079191;28;20238;-66
2022/07/27 03:32:36;;;;;;;12.98;7.65;;;;;;;22.12;100.00;-24431.44;5079013;28;20280;-64
2022/07/27 03:35:01;;;;;;;14.52;7.93;;;;;;;22.42;100.00;-24439.88;5079917;28;20679;-67
2022/07/27 03:37:27;;;;;;;12.25;7.43;;;;;;;22.93;100.00;-24453.56;5080460;28;20223;-67
2022/07/27 03:39:52;;;;;;;15.23;8.13;;;;;;;22.92;100.00;-24453.28;5079757;28;20178;-63
2022/07/27 03:42:17;;;;;;;13.20;7.75;;;;;;;23.58;100.00;-24471.53;5079388;28;20222;-64
2022/07/27 03:44:43;;;;;;;16.73;8.48;;;;;;;23.94;100.00;-24481.19;5079116;28;20612;-62
2022/07/27 03:47:08;;;;;;;11.05;6.80;;;;;;;24.40;100.00;-24493.75;5078982;28;20623;-64
2022/07/27 03:49:34;;;;;;;14.52;8.05;;;;;;;25.11;99.11;-24513.16;5079294;28;20286;-66
2022/07/27 03:52:00;;;;;;;12.20;7.13;;;;;;;25.62;95.23;-24526.94;5076801;28;20170;-62
2022/07/27 03:54:25;;;;;;;14.20;8.02;;;;;;;26.52;90.40;-24551.38;5081787;28;20201;-63
2022/07/27 03:56:51;;;;;;;12.77;7.15;;;;;;;27.07;85.38;-24566.47;5080280;28;20516;-64
2022/07/27 03:59:16;;;;;;;13.32;7.57;;;;;;;27.12;83.33;-24567.84;5074756;28;20608;-66
2022/07/27 04:01:42;;;;;;;13.40;7.72;;;;;;;27.41;81.92;-24575.66;5076470;28;20177;-64
2022/07/27 04:04:07;;;;;;;16.33;7.65;;;;;;;27.99;77.84;-24591.44;5079648;28;20201;-62
2022/07/27 04:06:33;;;;;;;16.60;8.43;;;;;;;28.36;73.71;-24601.28;5073467;28;20217;-64
2022/07/27 04:08:58;;;;;;;14.38;7.85;;;;;;;28.97;71.35;-24617.81;5074554;28;20169;-62
2022/07/27 04:11:24;;;;;;;11.85;7.45;;;;;;;29.04;69.50;-24619.75;5074413;28;20314;-66
2022/07/27 04:13:50;;;;;;;14.50;7.50;;;;;;;29.28;68.53;-24626.16;5073158;28;20172;-67
2022/07/27 04:16:15;;;;;;;12.52;7.60;;;;;;;29.54;67.11;-24633.13;5074033;28;20194;-62
2022/07/27 04:18:41;;;;;;;17.17;7.80;;;;;;;29.92;65.67;-24643.38;5076066;28;20222;-61
2022/07/27 04:21:06;;;;;;;14.05;7.90;;;;;;;30.31;63.81;-24653.84;5074385;28;20182;-63
2022/07/27 04:23:32;;;;;;;16.23;7.97;;;;;;;30.17;62.84;-24650.19;5074360;28;20253;-61
2022/07/27 04:25:58;;;;;;;13.75;7.65;;;;;;;30.65;61.28;-24663.25;5074310;28;20264;-61
2022/07/27 04:28:24;;;;;;;13.00;8.15;;;;;;;30.67;61.30;-24663.66;5073788;28;20584;-62
2022/07/27 04:30:49;;;;;;;13.45;7.50;;;;;;;30.79;60.69;-24666.81;5074101;28;20170;-63
2022/07/27 04:33:15;;;;;;;12.02;7.57;;;;;;;30.39;61.82;-24656.03;5076539;28;20173;-61
2022/07/27 04:35:41;;;;;;;9.98;6.15;;;;;;;28.33;61.83;-24600.47;5081483;28;20169;-64
2022/07/27 04:38:06;;;;;;;11.32;7.00;;;;;;;30.82;60.65;-24667.63;5080615;28;20197;-64
2022/07/27 04:40:33;;;;;;;10.98;6.97;;;;;;;30.74;60.39;-24665.56;5082084;28;20166;-63
2022/07/27 04:43:01;;;;;;;10.98;6.28;;;;;;;30.33;60.82;-24654.41;5083898;28;20620;-64
2022/07/27 04:45:26;;;;;;;11.18;6.13;;;;;;;30.56;61.40;-24660.69;5082349;28;20256;-64
2022/07/27 04:47:52;;;;;;;12.23;6.22;;;;;;;30.65;61.39;-24663.13;5084608;28;20199;-63
2022/07/27 04:50:17;;;;;;;11.25;6.60;;;;;;;30.77;60.17;-24666.25;5078649;28;20166;-64
2022/07/27 04:52:43;;;;;;;10.20;6.57;;;;;;;30.83;59.51;-24667.88;5079523;28;20554;-64
2022/07/27 04:55:09;;;;;;;12.57;6.38;;;;;;;30.25;62.22;-24652.50;5071938;28;20546;-64
2022/07/27 04:57:34;;;;;;;11.13;6.90;;;;;;;29.95;63.01;-24644.19;5079061;28;20632;-64
2022/07/27 04:59:59;;;;;;;9.40;5.85;;;;;;;30.18;62.91;-24650.44;5073024;28;20178;-65
2022/07/27 05:02:27;;;;;;;10.85;6.88;;;;;;;30.18;62.72;-24650.44;5075598;28;20177;-63
2022/07/27 05:04:52;;;;;;;10.00;6.35;;;;;;;30.21;64.16;-24651.41;5072959;28;20597;-63
2022/07/27 05:07:18;;;;;;;11.05;6.47;;;;;;;29.69;64.98;-24637.22;5075869;28;20221;-63
2022/07/27 05:09:43;;;;;;;10.70;6.85;;;;;;;28.68;70.44;-24610.03;5078972;28;20617;-64
2022/07/27 05:12:09;;;;;;;11.63;6.88;;;;;;;28.63;71.51;-24608.53;5079063;28;20680;-62
2022/07/27 05:14:34;;;;;;;13.95;6.93;;;;;;;28.69;70.97;-24610.31;5083309;28;20250;-63
2022/07/27 05:17:00;;;;;;;11.98;7.30;;;;;;;29.23;69.59;-24624.78;5072959;28;20211;-63
2022/07/27 05:19:26;;;;;;;13.20;6.50;;;;;;;29.14;68.38;-24622.34;5072863;28;20185;-62
2022/07/27 05:21:51;;;;;;;11.57;6.88;;;;;;;29.73;65.92;-24638.44;5078151;28;20620;-62
2022/07/27 05:24:17;;;;;;;11.90;6.97;;;;;;;29.24;68.57;-24625.06;5072413;28;20205;-63
2022/07/27 05:26:43;;;;;;;11.32;6.93;;;;;;;29.33;68.40;-24627.53;5077757;28;20663;-63
2022/07/27 05:29:08;;;;;;;10.75;6.82;;;;;;;28.89;70.56;-24615.78;5072649;28;20178;-65
2022/07/27 05:31:33;;;;;;;12.10;7.25;;;;;;;28.42;71.71;-24603.06;5072813;28;20166;-62
2022/07/27 05:33:59;;;;;;;10.88;6.90;;;;;;;28.11;73.78;-24594.59;5072430;28;20724;-62
2022/07/27 05:36:25;;;;;;;10.88;7.10;;;;;;;28.08;73.25;-24593.88;5072468;28;20217;-63
2022/07/27 05:38:50;;;;;;;11.32;6.75;;;;;;;27.71;74.94;-24583.75;5072595;28;20207;-62
2022/07/27 05:41:24;;;;;;;14.80;7.20;;;;;;;27.76;78.06;-24585.13;5071269;28;20576;-63
2022/07/27 05:43:50;;;;;;;10.90;6.85;;;;;;;25.66;76.89;-24528.16;5074329;28;20260;-64
2022/07/27 05:46:15;;;;;;;12.60;6.70;;;;;;;27.52;80.14;-24578.69;5074729;28;20679;-64
2022/07/27 05:48:41;;;;;;;11.60;7.63;;;;;;;27.54;80.49;-24579.25;5075130;28;20174;-64
2022/07/27 05:51:07;;;;;;;11.70;6.68;;;;;;;27.37;79.94;-24574.56;5081950;28;20170;-63
2022/07/27 05:53:34;;;;;;;14.68;6.45;;;;;;;27.20;79.87;-24570.06;5072305;28;20165;-63
2022/07/27 05:55:59;;;;;;;11.75;6.55;;;;;;;27.46;78.24;-24576.91;5072219;28;20593;-63
2022/07/27 05:58:28;;;;;;;12.13;6.00;;;;;;;27.56;78.75;-24579.78;5071927;28;20628;-64
2022/07/27 06:00:55;;;;;;;9.35;6.00;;;;;;;27.35;74.95;-24574.03;5071901;28;20211;-62
2022/07/27 06:03:21;;;;;;;10.45;6.65;;;;;;;26.67;80.52;-24555.66;5072225;28;20162;-66
2022/07/27 06:05:47;;;;;;;10.63;6.47;;;;;;;26.86;80.50;-24560.59;5072304;28;20254;-63
2022/07/27 06:08:13;;;;;;;9.93;6.40;;;;;;;27.35;79.69;-24573.88;5074163;28;20218;-64
2022/07/27 06:10:39;;;;;;;13.48;6.65;;;;;;;27.76;76.15;-24585.00;5082239;28;20217;-64
2022/07/27 06:13:07;;;;;;;11.43;6.75;;;;;;;27.86;76.60;-24587.72;5082052;28;20174;-64
2022/07/27 06:15:33;;;;;;;11.65;6.05;;;;;;;27.67;75.14;-24582.66;5082070;28;20625;-64
2022/07/27 06:17:59;;;;;;;12.75;5.70;;;;;;;27.93;74.83;-24589.78;5074530;28;20184;-64
2022/07/27 06:20:24;;;;;;;11.43;6.30;;;;;;;28.02;74.27;-24592.25;5072180;28;20206;-65
2022/07/27 06:22:52;;;;;;;10.35;6.03;;;;;;;28.34;73.69;-24600.75;5071753;28;20216;-65
2022/07/27 06:25:19;;;;;;;11.15;6.28;;;;;;;28.28;75.18;-24599.09;5071905;28;20181;-63
2022/07/27 06:27:45;;;;;;;10.45;6.82;;;;;;;27.58;77.31;-24580.19;5072867;28;20252;-64
2022/07/27 06:30:13;;;;;;;8.75;5.82;;;;;;;27.85;78.13;-24587.59;5075895;28;20273;-63
2022/07/27 06:32:39;;;;;;;10.48;6.22;;;;;;;28.22;73.79;-24597.59;5070972;28;20170;-63
2022/07/27 06:35:05;;;;;;;10.15;6.53;;;;;;;28.06;73.43;-24593.22;5071771;28;20508;-64
2022/07/27 06:37:31;;;;;;;11.15;7.20;;;;;;;27.96;75.05;-24590.47;5072026;28;20192;-65
2022/07/27 06:39:57;;;;;;;12.82;6.68;;;;;;;28.08;74.50;-24593.75;5071737;28;20154;-64
2022/07/27 06:42:23;;;;;;;9.35;6.20;;;;;;;28.70;72.05;-24610.59;5072436;28;20194;-62
2022/07/27 06:44:48;;;;;;;11.13;5.95;;;;;;;28.67;69.87;-24609.75;5072334;28;20212;-63
2022/07/27 06:47:14;;;;;;;12.30;6.43;;;;;;;28.84;68.54;-24614.41;5072174;28;20253;-63
2022/07/27 06:49:39;;;;;;;9.85;6.55;;;;;;;28.86;69.52;-24614.81;5072274;28;20166;-63
2022/07/27 06:52:06;;;;;;;10.73;6.38;;;;;;;28.21;70.27;-24597.19;5071696;28;20594;-63
2022/07/27 06:54:32;;;;;;;11.18;6.50;;;;;;;28.09;71.90;-24594.03;5072190;28;20158;-63
2022/07/27 06:56:58;;;;;;;9.45;6.25;;;;;;;28.71;71.32;-24610.72;5071818;28;20193;-64
2022/07/27 06:59:23;;;;;;;12.13;6.72;;;;;;;29.09;70.37;-24620.97;5071925;28;20170;-63
2022/07/27 07:01:49;;;;;;;10.73;6.85;;;;;;;28.66;68.88;-24609.50;5070354;28;20177;-63
2022/07/27 07:04:14;;;;;;;11.02;6.55;;;;;;;28.71;70.25;-24610.88;5071795;28;20525;-63
2022/07/27 07:06:40;;;;;;;9.60;6.38;;;;;;;28.84;70.98;-24614.41;5071530;28;20691;-63
2022/07/27 07:09:05;;;;;;;11.82;7.57;;;;;;;29.19;69.22;-24623.69;5072454;28;20188;-63
2022/07/27 07:11:30;;;;;;;10.98;6.30;;;;;;;29.57;67.44;-24634.09;5071366;28;20617;-63
2022/07/27 07:13:56;;;;;;;9.68;6.10;;;;;;;29.43;66.84;-24630.25;5071647;28;20303;-64
2022/07/27 07:16:21;;;;;;;12.35;6.85;;;;;;;29.46;65.23;-24631.06;5072136;28;20675;-63
2022/07/27 07:18:47;;;;;;;10.98;6.70;;;;;;;29.22;65.48;-24624.53;5071782;28;20620;-63
2022/07/27 07:21:15;;;;;;;11.57;6.20;;;;;;;29.59;65.32;-24634.63;5071481;28;20166;-63
2022/07/27 07:23:40;;;;;;;9.07;6.03;;;;;;;29.76;61.17;-24639.28;5071253;28;20228;-63
2022/07/27 07:26:06;;;;;;;10.00;5.88;;;;;;;29.77;62.74;-24639.53;5071953;28;20170;-62
2022/07/27 07:28:31;;;;;;;12.88;6.80;;;;;;;26.11;62.37;-24540.41;5071729;28;20166;-63
2022/07/27 07:30:57;;;;;;;10.88;6.90;;;;;;;30.37;60.17;-24655.50;5071526;28;20170;-63
2022/07/27 07:33:23;;;;;;;12.13;7.15;;;;;;;30.20;58.56;-24651.00;5071521;28;20165;-62
2022/07/27 07:35:48;;;;;;;11.52;6.43;;;;;;;30.49;59.20;-24658.91;5071520;28;20158;-63
2022/07/27 07:38:14;;;;;;;11.85;7.35;;;;;;;28.07;58.29;-24593.63;5071488;28;20284;-63
2022/07/27 07:40:39;;;;;;;15.98;7.70;;;;;;;30.70;58.95;-24664.63;5071148;28;20162;-63
2022/07/27 07:43:05;;;;;;;14.73;7.95;;;;;;;30.81;56.42;-24667.34;5071628;28;20173;-62
2022/07/27 07:45:34;;;;;;;13.27;8.15;;;;;;;30.57;57.16;-24660.94;5071283;28;20165;-63
2022/07/27 07:47:59;;;;;;;12.90;8.18;;;;;;;30.93;57.44;-24670.75;5071512;28;20693;-63
2022/07/27 07:50:25;;;;;;;12.98;7.60;;;;;;;30.97;53.94;-24671.84;5071312;28;20169;-63
2022/07/27 07:52:53;;;;;;;13.43;7.93;;;;;;;30.94;54.49;-24670.88;5071074;28;20593;-63
2022/07/27 07:55:23;;;;;;;13.82;8.48;;;;;;;31.23;54.89;-24678.78;5071360;28;20604;-63
2022/07/27 07:57:49;;;;;;;11.30;6.85;;;;;;;31.51;52.44;-24686.41;5070863;28;20205;-63
2022/07/27 08:00:16;;;;;;;14.77;7.60;;;;;;;31.31;52.01;-24680.97;5071253;28;20161;-63
2022/07/27 08:02:53;;;;;;;14.68;8.30;;;;;;;31.22;52.81;-24678.50;5071499;28;20181;-63
2022/07/27 08:05:19;;;;;;;12.80;7.63;;;;;;;31.48;51.26;-24685.59;5074530;28;20218;-63
2022/07/27 08:07:46;;;;;;;12.98;7.82;;;;;;;29.23;50.86;-24624.78;5074472;28;20336;-63
2022/07/27 08:10:13;;;;;;;11.05;7.57;;;;;;;31.67;51.46;-24690.47;5073159;28;20177;-63
2022/07/27 08:12:42;;;;;;;11.18;7.32;;;;;;;31.52;51.19;-24686.66;5074928;28;20218;-62
2022/07/27 08:15:09;;;;;;;12.48;7.13;;;;;;;31.48;50.79;-24685.59;5074799;28;20172;-63
2022/07/27 08:17:34;;;;;;;13.85;7.97;;;;;;;31.79;49.56;-24693.75;5074438;28;20670;-64
2022/07/27 08:20:00;;;;;;;15.95;7.93;;;;;;;32.14;49.00;-24703.25;5073248;28;20245;-63
2022/07/27 08:22:26;;;;;;;12.27;7.57;;;;;;;32.37;48.15;-24709.50;5077675;28;20559;-63
2022/07/27 08:24:52;;;;;;;10.77;6.95;;;;;;;32.51;47.47;-24713.16;5078605;28;20186;-63
2022/07/27 08:27:17;;;;;;;13.55;7.22;;;;;;;32.26;48.07;-24706.50;5074041;28;20169;-63
2022/07/27 08:29:43;;;;;;;11.95;7.55;;;;;;;32.23;49.44;-24705.56;5078376;28;20271;-63
2022/07/27 08:32:08;;;;;;;12.05;7.72;;;;;;;32.50;46.57;-24712.75;5080782;28;20243;-64
2022/07/27 08:34:34;;;;;;;11.65;6.93;;;;;;;32.82;45.43;-24721.56;5080631;28;20670;-63
2022/07/27 08:36:59;;;;;;;15.38;6.95;;;;;;;32.60;45.84;-24715.47;5073825;28;20672;-63
2022/07/27 08:39:25;;;;;;;9.18;6.28;;;;;;;32.67;46.15;-24717.38;5074281;28;20169;-63
2022/07/27 08:41:54;;;;;;;14.98;7.70;;;;;;;32.69;46.31;-24717.91;5073733;28;20204;-62
2022/07/27 08:44:23;;;;;;;12.25;7.13;;;;;;;32.55;45.42;-24714.09;5074004;28;20177;-62
2022/07/27 08:46:50;;;;;;;11.48;7.35;;;;;;;32.71;44.30;-24718.59;5075848;28;20218;-62
2022/07/27 08:49:20;;;;;;;11.95;7.35;;;;;;;32.91;44.25;-24723.88;5074987;28;20658;-62
2022/07/27 08:51:47;;;;;;;9.70;6.95;;;;;;;32.66;46.88;-24717.09;5074773;28;20177;-64
2022/07/27 08:54:12;;;;;;;12.85;7.40;;;;;;;33.03;46.55;-24726.97;5075558;28;20683;-64
2022/07/27 08:56:38;;;;;;;12.23;7.35;;;;;;;32.86;45.11;-24722.50;5078853;28;20288;-64
2022/07/27 08:59:03;;;;;;;13.05;7.95;;;;;;;33.21;46.32;-24732.00;5080259;28;20185;-63
2022/07/27 09:01:34;;;;;;;10.73;7.03;;;;;;;33.13;45.02;-24729.84;5075860;28;20169;-64
2022/07/27 09:04:00;;;;;;;9.43;6.57;;;;;;;33.07;46.31;-24728.06;5073463;28;20185;-63
2022/07/27 09:06:54;;;;;;;10.20;6.82;;;;;;;32.32;46.76;-24708.13;5073347;28;20213;-63
2022/07/27 09:09:21;;;;;;;11.02;7.10;;;;;;;32.33;48.13;-24708.41;5064127;28;20522;-64
2022/07/27 09:12:02;;;;;;;12.38;7.63;;;;;;;32.74;45.96;-24719.25;5053522;28;20174;-64
2022/07/27 09:14:32;;;;;;;11.75;6.90;;;;;;;32.82;46.83;-24721.56;5053329;28;20219;-63
2022/07/27 09:16:58;;;;;;;9.00;6.47;;;;;;;33.22;44.92;-24732.28;5052863;28;20194;-63
2022/07/27 09:19:23;;;;;;;11.20;6.60;;;;;;;33.30;44.60;-24734.44;5053034;28;20162;-63
2022/07/27 09:21:49;;;;;;;11.25;7.03;;;;;;;33.54;44.31;-24740.66;5053290;28;20241;-64
2022/07/27 09:24:15;;;;;;;11.18;7.15;;;;;;;33.58;43.87;-24741.75;5052542;28;20158;-64
2022/07/27 09:26:41;;;;;;;11.07;7.18;;;;;;;33.47;44.99;-24738.91;5052173;28;20174;-63
2022/07/27 09:29:08;;;;;;;13.52;7.55;;;;;;;33.40;44.79;-24737.00;5052988;28;20593;-64
2022/07/27 09:31:45;;;;;;;10.90;6.82;;;;;;;33.40;44.63;-24737.00;5053045;28;20202;-63
2022/07/27 09:34:24;;;;;;;10.75;7.65;;;;;;;33.45;45.87;-24738.22;5052719;28;20166;-64
2022/07/27 09:36:56;;;;;;;11.73;7.47;;;;;;;33.94;44.75;-24751.38;5053010;28;20228;-64
2022/07/27 09:39:22;;;;;;;13.77;7.05;;;;;;;34.26;45.34;-24760.03;5052634;28;20193;-63
2022/07/27 09:41:51;;;;;;;9.88;7.00;;;;;;;34.11;42.18;-24755.97;5052735;28;20258;-63
2022/07/27 09:44:17;;;;;;;11.43;7.07;;;;;;;34.25;40.56;-24759.63;5058427;28;20660;-63
2022/07/27 09:46:45;;;;;;;13.25;7.78;;;;;;;34.37;41.99;-24763.00;5074844;28;20215;-63
2022/07/27 09:49:33;;;;;;;16.58;7.90;;;;;;;34.48;41.25;-24765.84;5072562;28;20566;-64
2022/07/27 09:52:01;;;;;;;13.73;8.57;;;;;;;34.44;41.65;-24764.75;5065820;28;20199;-64
2022/07/27 09:54:27;;;;;;;10.60;7.43;;;;;;;34.43;40.25;-24764.63;5072470;28;20585;-65
2022/07/27 09:57:00;;;;;;;11.30;7.13;;;;;;;34.39;40.24;-24763.41;5071876;28;20721;-63
2022/07/27 09:59:27;;;;;;;14.25;9.25;;;;;;;34.41;39.65;-24763.94;5072536;28;20256;-63
2022/07/27 10:01:54;;;;;;;13.00;8.00;;;;;;;34.50;40.27;-24766.38;5072408;28;20545;-64
2022/07/27 10:04:21;;;;;;;11.38;7.43;;;;;;;34.29;40.51;-24760.84;5071998;28;20205;-64
2022/07/27 10:06:47;;;;;;;14.65;8.65;;;;;;;34.51;41.44;-24766.63;5071868;28;20221;-64
2022/07/27 10:09:13;;;;;;;11.40;7.18;;;;;;;34.86;39.63;-24775.97;5071929;28;20620;-64
2022/07/27 10:11:38;;;;;;;11.93;7.63;;;;;;;35.02;40.07;-24780.41;5070895;28;20650;-64
2022/07/27 10:14:04;;;;;;;11.98;7.70;;;;;;;35.14;38.85;-24783.38;5072077;28;20177;-63
2022/07/27 10:16:31;;;;;;;13.48;8.18;;;;;;;35.14;40.22;-24783.38;5071907;28;20652;-64
2022/07/27 10:19:25;;;;;;;10.55;6.97;;;;;;;34.81;39.67;-24774.63;5071115;28;20158;-66
2022/07/27 10:21:50;;;;;;;11.05;7.50;;;;;;;34.94;40.50;-24778.25;5071500;28;20196;-63
2022/07/27 10:24:33;;;;;;;10.55;7.43;;;;;;;34.39;40.30;-24763.53;5071852;28;20170;-63
2022/07/27 10:27:16;;;;;;;10.60;6.85;;;;;;;34.72;39.97;-24772.19;5071447;28;20248;-63
2022/07/27 10:29:42;;;;;;;10.57;6.93;;;;;;;34.03;40.05;-24753.94;5071907;28;20172;-64
2022/07/27 10:32:07;;;;;;;11.10;7.03;;;;;;;34.41;38.78;-24764.06;5071657;28;20169;-65
2022/07/27 10:34:38;;;;;;;10.10;6.88;;;;;;;34.22;37.71;-24758.94;5071812;28;20621;-64
2022/07/27 10:37:11;;;;;;;8.88;6.00;;;;;;;34.34;36.71;-24762.06;5070994;28;20185;-63
2022/07/27 10:39:41;;;;;;;12.55;5.90;;;;;;;34.42;36.08;-24764.22;5071775;28;20174;-64
2022/07/27 10:42:29;;;;;;;10.02;6.75;;;;;;;34.63;36.02;-24769.75;5071382;28;20185;-63
2022/07/27 10:45:02;;;;;;;9.48;6.40;;;;;;;34.74;36.96;-24772.84;5071290;28;20189;-64
2022/07/27 10:47:43;;;;;;;10.77;6.45;;;;;;;35.12;36.15;-24782.84;5071373;28;20181;-63
2022/07/27 10:50:15;;;;;;;8.88;6.38;;;;;;;35.22;35.57;-24785.56;5076703;28;20658;-63
2022/07/27 10:52:48;;;;;;;12.10;6.53;;;;;;;34.96;35.26;-24778.78;5073440;28;20209;-64
2022/07/27 10:55:28;;;;;;;9.07;5.72;;;;;;;35.36;32.86;-24789.47;5071234;28;20175;-64
2022/07/27 10:57:54;;;;;;;9.43;5.57;;;;;;;34.95;33.45;-24778.41;5070616;28;20196;-63
2022/07/27 11:00:19;;;;;;;8.88;5.68;;;;;;;35.36;33.02;-24789.31;5071285;28;20252;-64
2022/07/27 11:02:45;;;;;;;7.60;5.85;;;;;;;35.33;34.27;-24788.66;5071036;28;20716;-64
2022/07/27 11:05:11;;;;;;;8.68;5.90;;;;;;;34.98;35.20;-24779.34;5071031;28;20585;-64
2022/07/27 11:07:43;;;;;;;11.32;6.72;;;;;;;35.29;34.54;-24787.44;5075112;28;20219;-62
2022/07/27 11:10:09;;;;;;;9.77;6.00;;;;;;;35.25;34.96;-24786.34;5077077;28;20232;-62
2022/07/27 11:12:36;;;;;;;8.02;5.78;;;;;;;35.28;34.23;-24787.16;5073179;28;20273;-64
2022/07/27 11:15:03;;;;;;;8.80;5.82;;;;;;;35.51;35.56;-24793.38;5081504;28;20169;-64